createdAt,value
2018-08-23T00:12:35.456Z,20.9
2018-08-23T00:27:55.190Z,20.8
2018-08-23T00:43:09.657Z,20.8
2018-08-23T00:58:33.092Z,20.7
2018-08-23T01:13:52.260Z,20.6
2018-08-23T01:29:11.212Z,20.5
2018-08-23T01:44:14.428Z,20.6
2018-08-23T01:59:46.816Z,20.5
2018-08-23T02:15:08.529Z,20.2
2018-08-23T02:30:27.322Z,19.9
2018-08-23T02:45:46.469Z,20
2018-08-23T03:00:50.340Z,19.9
2018-08-23T03:16:21.958Z,19.9
2018-08-23T03:31:42.565Z,19.5
2018-08-23T03:47:01.647Z,19.4
2018-08-23T04:02:20.107Z,19.3
2018-08-23T04:17:24.952Z,19.3
2018-08-23T04:32:55.661Z,19.5
2018-08-23T04:48:17.743Z,19.6
2018-08-23T05:03:34.781Z,19.8
2018-08-23T05:18:53.792Z,19.9
2018-08-23T05:33:59.453Z,20.3
2018-08-23T05:49:31.605Z,20.9
2018-08-23T06:04:49.849Z,20.5
2018-08-23T06:20:09.460Z,21.7
2018-08-23T06:35:17.716Z,22.2
2018-08-23T06:50:47.896Z,22.7
2018-08-23T07:06:07.365Z,22.9
2018-08-23T07:21:27.367Z,23.5
2018-08-23T07:36:45.326Z,24
2018-08-23T07:52:07.723Z,24.6
2018-08-23T08:07:28.722Z,25.3
2018-08-23T08:22:50.448Z,26
2018-08-23T08:38:05.689Z,26.7
2018-08-23T08:53:32.978Z,27.7
2018-08-23T09:08:55.453Z,28.4
2018-08-23T09:24:17.806Z,29.1
2018-08-23T09:39:28.748Z,29.8
2018-08-23T09:55:13.746Z,30.9
2018-08-23T10:10:28.516Z,31.7
2018-08-23T10:25:52.973Z,31.8
2018-08-23T10:41:17.866Z,32.2
2018-08-23T10:56:31.468Z,32.6
2018-08-23T11:12:09.416Z,33
2018-08-23T11:27:36.032Z,33.5
2018-08-23T11:43:03.621Z,33.9
2018-08-23T11:58:30.581Z,34.3
2018-08-23T12:13:39.473Z,34.4
2018-08-23T12:29:17.845Z,34.9
2018-08-23T12:44:53.756Z,35.4
2018-08-23T13:00:22.175Z,35.7
2018-08-23T13:15:50.480Z,35.9
2018-08-23T13:31:18.698Z,36.2
2018-08-23T13:46:29.700Z,35.4
2018-08-23T14:02:08.635Z,36
2018-08-23T14:17:42.628Z,35.8
2018-08-23T14:33:10.047Z,35.3
2018-08-23T14:48:36.438Z,34.6
2018-08-23T15:03:40.146Z,34.1
2018-08-23T15:19:18.046Z,33.7
2018-08-23T15:34:52.399Z,33.3
2018-08-23T15:50:17.383Z,31.2
2018-08-23T16:05:39.402Z,27.8
2018-08-23T16:21:00.693Z,26
2018-08-23T16:36:15.485Z,25.3
2018-08-23T16:51:42.431Z,25.1
2018-08-23T17:07:03.592Z,24.9
2018-08-23T17:22:23.820Z,24.7
2018-08-23T17:37:30.184Z,24.9
2018-08-23T17:53:03.748Z,24.9
2018-08-23T18:08:25.919Z,24.9
2018-08-23T18:23:51.485Z,24.9
2018-08-23T18:39:07.697Z,25
2018-08-23T18:54:17.269Z,24.9
2018-08-23T19:09:49.443Z,24.8
2018-08-23T19:25:09.590Z,24.9
2018-08-23T19:40:30.163Z,24.6
2018-08-23T19:55:50.722Z,24.3
2018-08-23T20:11:03.214Z,24.4
2018-08-23T20:26:31.888Z,24.3
2018-08-23T20:41:53.052Z,24.2
2018-08-23T20:57:13.097Z,24
2018-08-23T21:12:33.379Z,23.9
2018-08-23T21:27:47.170Z,24
2018-08-23T21:43:14.062Z,24
2018-08-23T21:58:34.942Z,23.9
2018-08-23T22:13:54.879Z,23.9
2018-08-23T22:29:15.549Z,23.9
2018-08-23T22:44:30.971Z,23.8
2018-08-23T22:59:55.515Z,23.3
2018-08-23T23:15:15.637Z,23.2
2018-08-23T23:30:35.635Z,23.1
2018-08-23T23:45:39.755Z,22.8
